createdAt,value
2018-05-17T00:00:30.496Z,0
2018-05-17T00:01:12.450Z,0
2018-05-17T00:01:54.163Z,0
2018-05-17T00:02:35.905Z,0
2018-05-17T00:03:16.945Z,0
2018-05-17T00:03:57.892Z,0
2018-05-17T00:04:39.864Z,0
2018-05-17T00:05:22.363Z,0
2018-05-17T00:06:03.609Z,0
2018-05-17T00:06:44.626Z,0
2018-05-17T00:07:25.731Z,0
2018-05-17T00:08:06.651Z,0
2018-05-17T00:08:47.734Z,0
2018-05-17T00:09:30.034Z,0
2018-05-17T00:10:12.665Z,0
2018-05-17T00:10:56.314Z,0
2018-05-17T00:11:37.331Z,0
2018-05-17T00:12:18.905Z,0
2018-05-17T00:12:59.996Z,0
2018-05-17T00:13:41.899Z,0
2018-05-17T00:14:24.258Z,0
2018-05-17T00:15:06.248Z,0
2018-05-17T00:15:47.110Z,0
2018-05-17T00:16:28.118Z,0
2018-05-17T00:17:09.264Z,0
2018-05-17T00:17:50.286Z,0
2018-05-17T00:18:32.082Z,0
2018-05-17T00:19:13.119Z,0
2018-05-17T00:19:54.783Z,0
2018-05-17T00:20:37.518Z,0
2018-05-17T00:21:19.334Z,0
2018-05-17T00:22:00.123Z,0
2018-05-17T00:22:40.687Z,0
2018-05-17T00:23:21.257Z,0
2018-05-17T00:24:01.821Z,0
2018-05-17T00:24:42.398Z,0
2018-05-17T00:25:22.954Z,0
2018-05-17T00:26:03.516Z,0
2018-05-17T00:26:44.087Z,0
2018-05-17T00:27:24.659Z,0
2018-05-17T00:28:05.216Z,0
2018-05-17T00:28:45.793Z,0
2018-05-17T00:29:26.360Z,0
2018-05-17T00:30:06.941Z,0
2018-05-17T00:30:47.492Z,0
2018-05-17T00:31:28.045Z,0
2018-05-17T00:32:08.617Z,0
2018-05-17T00:32:49.200Z,0
2018-05-17T00:33:29.766Z,0
2018-05-17T00:34:10.348Z,0
2018-05-17T00:34:50.928Z,0
2018-05-17T00:35:31.479Z,0
2018-05-17T00:36:12.054Z,0
2018-05-17T00:36:52.601Z,0
2018-05-17T00:37:33.165Z,0
2018-05-17T00:38:13.701Z,0
2018-05-17T00:38:54.277Z,0
2018-05-17T00:39:34.842Z,0
2018-05-17T00:40:15.414Z,0
2018-05-17T00:40:55.968Z,0
2018-05-17T00:41:36.530Z,0
2018-05-17T00:42:17.121Z,0
2018-05-17T00:42:57.708Z,0
2018-05-17T00:43:38.270Z,0
2018-05-17T00:44:18.853Z,0
2018-05-17T00:44:59.445Z,0
2018-05-17T00:45:40.028Z,0
2018-05-17T00:46:20.588Z,0
2018-05-17T00:47:01.158Z,0
2018-05-17T00:47:41.706Z,0
2018-05-17T00:48:22.363Z,0
2018-05-17T00:49:02.849Z,0
2018-05-17T00:49:43.433Z,0
2018-05-17T00:50:24.000Z,0
2018-05-17T00:51:04.577Z,0
2018-05-17T00:51:45.136Z,0
2018-05-17T00:52:25.782Z,0
2018-05-17T00:53:06.267Z,0
2018-05-17T00:53:46.821Z,0
2018-05-17T00:54:27.389Z,0
2018-05-17T00:55:07.974Z,0
2018-05-17T00:55:48.540Z,0
2018-05-17T00:56:29.111Z,0
2018-05-17T00:57:09.661Z,0
2018-05-17T00:57:50.240Z,0
2018-05-17T00:58:30.818Z,0
2018-05-17T00:59:11.384Z,0
2018-05-17T00:59:51.965Z,0
2018-05-17T01:00:32.552Z,0
2018-05-17T01:01:13.119Z,0
2018-05-17T01:01:53.681Z,0
2018-05-17T01:02:34.252Z,0
2018-05-17T01:03:14.829Z,0
2018-05-17T01:03:55.417Z,0
2018-05-17T01:04:35.971Z,0
2018-05-17T01:05:16.561Z,0
2018-05-17T01:05:57.116Z,0
2018-05-17T01:06:37.680Z,0
2018-05-17T01:07:18.246Z,0
2018-05-17T01:07:58.811Z,0
2018-05-17T01:08:39.383Z,0
2018-05-17T01:09:19.949Z,0
2018-05-17T01:10:00.513Z,0
2018-05-17T01:10:41.096Z,0
2018-05-17T01:11:21.661Z,0
2018-05-17T01:12:02.222Z,0
2018-05-17T01:12:42.784Z,0
2018-05-17T01:13:23.347Z,0
2018-05-17T01:14:03.905Z,0
2018-05-17T01:14:44.507Z,0
2018-05-17T01:15:25.074Z,0
2018-05-17T01:16:05.623Z,0
2018-05-17T01:16:46.184Z,0
2018-05-17T01:17:26.750Z,0
2018-05-17T01:18:07.302Z,0
2018-05-17T01:18:47.881Z,0
2018-05-17T01:19:28.433Z,0
2018-05-17T01:20:08.994Z,0
2018-05-17T01:20:49.560Z,0
2018-05-17T01:21:30.109Z,0
2018-05-17T01:22:10.673Z,0
2018-05-17T01:22:51.245Z,0
2018-05-17T01:23:31.808Z,0
2018-05-17T01:24:12.386Z,0
2018-05-17T01:24:52.960Z,0
2018-05-17T01:25:33.547Z,0
2018-05-17T01:26:14.122Z,0
2018-05-17T01:26:54.703Z,0
2018-05-17T01:27:35.262Z,0
2018-05-17T01:28:15.877Z,0
2018-05-17T01:28:56.410Z,0
2018-05-17T01:29:36.995Z,0
2018-05-17T01:30:17.556Z,0
2018-05-17T01:30:58.116Z,0
2018-05-17T01:31:38.761Z,0
2018-05-17T01:32:19.323Z,0
2018-05-17T01:32:59.889Z,0
2018-05-17T01:33:40.440Z,0
2018-05-17T01:34:21.007Z,0
2018-05-17T01:35:01.637Z,0
2018-05-17T01:35:42.123Z,0
2018-05-17T01:36:22.684Z,0
2018-05-17T01:37:03.261Z,0
2018-05-17T01:37:43.816Z,0
2018-05-17T01:38:24.369Z,0
2018-05-17T01:39:04.953Z,0
2018-05-17T01:39:45.506Z,0
2018-05-17T01:40:26.070Z,0
2018-05-17T01:41:06.649Z,0
2018-05-17T01:41:47.217Z,0
2018-05-17T01:42:27.771Z,0
2018-05-17T01:43:08.361Z,0
2018-05-17T01:43:48.962Z,0
2018-05-17T01:44:29.518Z,0
2018-05-17T01:45:10.101Z,0
2018-05-17T01:45:50.693Z,0
2018-05-17T01:46:31.263Z,0
2018-05-17T01:47:11.822Z,0
2018-05-17T01:47:52.374Z,0
2018-05-17T01:48:32.936Z,0
2018-05-17T01:49:13.506Z,0
2018-05-17T01:49:54.128Z,0
2018-05-17T01:50:34.679Z,0
2018-05-17T01:51:15.263Z,0
2018-05-17T01:51:55.856Z,0
2018-05-17T01:52:36.418Z,0
2018-05-17T01:53:16.995Z,0
2018-05-17T01:53:57.563Z,0
2018-05-17T01:54:38.122Z,0
2018-05-17T01:55:18.678Z,0
2018-05-17T01:55:59.254Z,0
2018-05-17T01:56:39.809Z,0
2018-05-17T01:57:20.376Z,0
2018-05-17T01:58:00.955Z,0
2018-05-17T01:58:41.536Z,0
2018-05-17T01:59:22.107Z,0
2018-05-17T02:00:02.667Z,0
2018-05-17T02:00:43.231Z,0
2018-05-17T02:01:23.785Z,0
2018-05-17T02:02:04.350Z,0
2018-05-17T02:02:44.928Z,0
2018-05-17T02:03:25.473Z,0
2018-05-17T02:04:06.037Z,0
2018-05-17T02:04:46.604Z,0
2018-05-17T02:05:27.197Z,0
2018-05-17T02:06:07.825Z,0
2018-05-17T02:06:48.398Z,0
2018-05-17T02:07:28.987Z,0
2018-05-17T02:08:09.533Z,0
2018-05-17T02:08:50.103Z,0
2018-05-17T02:09:30.672Z,0
2018-05-17T02:10:11.224Z,0
2018-05-17T02:10:51.836Z,0
2018-05-17T02:11:32.406Z,0
2018-05-17T02:12:12.932Z,0
2018-05-17T02:12:53.508Z,0
2018-05-17T02:13:34.061Z,0
2018-05-17T02:14:14.635Z,0
2018-05-17T02:14:55.196Z,0
2018-05-17T02:15:35.770Z,0
2018-05-17T02:16:16.317Z,0
2018-05-17T02:16:56.881Z,0
2018-05-17T02:17:37.450Z,0
2018-05-17T02:18:18.002Z,0
2018-05-17T02:18:58.573Z,0
2018-05-17T02:19:39.142Z,0
2018-05-17T02:20:19.701Z,0
2018-05-17T02:21:00.267Z,0
2018-05-17T02:21:40.841Z,0
2018-05-17T02:22:21.424Z,0
2018-05-17T02:23:02.019Z,0
2018-05-17T02:23:42.578Z,0
2018-05-17T02:24:23.169Z,0
2018-05-17T02:25:03.800Z,0
2018-05-17T02:25:44.369Z,0
2018-05-17T02:26:24.923Z,0
2018-05-17T02:27:05.488Z,0
2018-05-17T02:27:46.059Z,0
2018-05-17T02:28:26.629Z,0
2018-05-17T02:29:07.199Z,0
2018-05-17T02:29:47.775Z,0
2018-05-17T02:30:28.337Z,0
2018-05-17T02:31:08.904Z,0
2018-05-17T02:31:49.450Z,0
2018-05-17T02:32:30.030Z,0
2018-05-17T02:33:10.613Z,0
2018-05-17T02:33:51.188Z,0
2018-05-17T02:34:31.752Z,0
2018-05-17T02:35:12.317Z,0
2018-05-17T02:35:52.879Z,0
2018-05-17T02:36:33.448Z,0
2018-05-17T02:37:14.013Z,0
2018-05-17T02:37:54.582Z,0
2018-05-17T02:38:35.134Z,0
2018-05-17T02:39:15.715Z,0
2018-05-17T02:39:56.290Z,0
2018-05-17T02:40:36.877Z,0
2018-05-17T02:41:17.442Z,0
2018-05-17T02:41:57.996Z,0
2018-05-17T02:42:38.558Z,0
2018-05-17T02:43:19.134Z,0
2018-05-17T02:43:59.687Z,0
2018-05-17T02:44:40.246Z,0
2018-05-17T02:45:20.830Z,0
2018-05-17T02:46:01.383Z,0
2018-05-17T02:46:41.992Z,0
2018-05-17T02:47:22.587Z,0
2018-05-17T02:48:03.166Z,0
2018-05-17T02:48:43.746Z,0
2018-05-17T02:49:24.320Z,0
2018-05-17T02:50:04.963Z,0
2018-05-17T02:50:45.465Z,0
2018-05-17T02:51:26.011Z,0
2018-05-17T02:52:06.570Z,0
2018-05-17T02:52:47.143Z,0
2018-05-17T02:53:27.707Z,0
2018-05-17T02:54:08.259Z,0
2018-05-17T02:54:48.838Z,0
2018-05-17T02:55:29.434Z,0
2018-05-17T02:56:10.018Z,0
2018-05-17T02:56:50.594Z,0
2018-05-17T02:57:31.166Z,0
2018-05-17T02:58:11.759Z,0
2018-05-17T02:58:52.319Z,0
2018-05-17T02:59:32.895Z,0
2018-05-17T03:00:13.465Z,0
2018-05-17T03:00:54.037Z,0
2018-05-17T03:01:34.679Z,0
2018-05-17T03:02:15.235Z,0
2018-05-17T03:02:55.808Z,0
2018-05-17T03:03:36.373Z,0
2018-05-17T03:04:16.944Z,0
2018-05-17T03:04:57.524Z,0
2018-05-17T03:05:38.094Z,0
2018-05-17T03:06:18.674Z,0
2018-05-17T03:06:59.260Z,0
2018-05-17T03:07:39.832Z,0
2018-05-17T03:08:20.389Z,0
2018-05-17T03:09:00.955Z,0
2018-05-17T03:09:41.521Z,0
2018-05-17T03:10:22.099Z,0
2018-05-17T03:11:02.650Z,0
2018-05-17T03:11:43.219Z,0
2018-05-17T03:12:23.781Z,0
2018-05-17T03:13:04.346Z,0
2018-05-17T03:13:44.900Z,0
2018-05-17T03:14:25.483Z,0
2018-05-17T03:15:06.024Z,0
2018-05-17T03:15:46.542Z,0
2018-05-17T03:16:27.103Z,0
2018-05-17T03:17:07.667Z,0
2018-05-17T03:17:48.236Z,0
2018-05-17T03:18:28.813Z,0
2018-05-17T03:19:09.387Z,0
2018-05-17T03:19:49.993Z,0
2018-05-17T03:20:30.564Z,0
2018-05-17T03:21:11.130Z,0
2018-05-17T03:21:51.674Z,0
2018-05-17T03:22:32.236Z,5
2018-05-17T03:23:12.801Z,5
2018-05-17T03:23:53.367Z,5
2018-05-17T03:24:33.932Z,5
2018-05-17T03:25:14.503Z,5
2018-05-17T03:25:55.044Z,5
2018-05-17T03:26:35.603Z,5
2018-05-17T03:27:16.166Z,5
2018-05-17T03:27:56.735Z,5
2018-05-17T03:28:37.312Z,5
2018-05-17T03:29:17.898Z,5
2018-05-17T03:29:58.452Z,5
2018-05-17T03:30:39.037Z,5
2018-05-17T03:31:19.588Z,5
2018-05-17T03:32:00.131Z,5
2018-05-17T03:32:40.709Z,5
2018-05-17T03:33:21.269Z,5
2018-05-17T03:34:01.819Z,5
2018-05-17T03:34:42.396Z,5
2018-05-17T03:35:22.967Z,5
2018-05-17T03:36:03.532Z,10
2018-05-17T03:36:44.094Z,10
2018-05-17T03:37:24.690Z,10
2018-05-17T03:38:05.221Z,10
2018-05-17T03:38:45.818Z,10
2018-05-17T03:39:26.363Z,10
2018-05-17T03:40:06.920Z,10
2018-05-17T03:40:47.525Z,10
2018-05-17T03:41:28.095Z,10
2018-05-17T03:42:08.656Z,10
2018-05-17T03:42:49.240Z,10
2018-05-17T03:43:29.794Z,10
2018-05-17T03:44:10.359Z,10
2018-05-17T03:44:50.928Z,10
2018-05-17T03:45:31.488Z,15
2018-05-17T03:46:12.081Z,15
2018-05-17T03:46:52.650Z,15
2018-05-17T03:47:33.264Z,15
2018-05-17T03:48:13.845Z,15
2018-05-17T03:48:54.422Z,15
2018-05-17T03:49:34.966Z,15
2018-05-17T03:50:15.539Z,15
2018-05-17T03:50:56.096Z,15
2018-05-17T03:51:36.676Z,20
2018-05-17T03:52:17.254Z,20
2018-05-17T03:52:57.818Z,20
2018-05-17T03:53:38.380Z,20
2018-05-17T03:54:18.958Z,20
2018-05-17T03:54:59.529Z,20
2018-05-17T03:55:40.083Z,20
2018-05-17T03:56:20.656Z,20
2018-05-17T03:57:01.214Z,25
2018-05-17T03:57:41.782Z,25
2018-05-17T03:58:22.344Z,25
2018-05-17T03:59:02.940Z,25
2018-05-17T03:59:43.493Z,25
2018-05-17T04:00:24.067Z,25
2018-05-17T04:01:04.643Z,25
2018-05-17T04:01:45.192Z,25
2018-05-17T04:02:25.746Z,25
2018-05-17T04:03:06.332Z,25
2018-05-17T04:03:46.871Z,25
2018-05-17T04:04:27.477Z,25
2018-05-17T04:05:08.105Z,30
2018-05-17T04:05:48.607Z,30
2018-05-17T04:06:29.162Z,30
2018-05-17T04:07:09.728Z,30
2018-05-17T04:07:50.302Z,30
2018-05-17T04:08:30.914Z,30
2018-05-17T04:09:11.454Z,30
2018-05-17T04:09:52.015Z,30
2018-05-17T04:10:32.575Z,30
2018-05-17T04:11:13.180Z,30
2018-05-17T04:11:53.755Z,35
2018-05-17T04:12:34.332Z,35
2018-05-17T04:13:14.910Z,35
2018-05-17T04:13:55.527Z,35
2018-05-17T04:14:36.043Z,35
2018-05-17T04:15:16.633Z,35
2018-05-17T04:15:57.207Z,40
2018-05-17T04:16:37.762Z,40
2018-05-17T04:17:18.319Z,40
2018-05-17T04:17:58.879Z,40
2018-05-17T04:18:39.441Z,45
2018-05-17T04:19:20.005Z,45
2018-05-17T04:20:00.576Z,45
2018-05-17T04:20:41.137Z,45
2018-05-17T04:21:21.692Z,45
2018-05-17T04:22:02.261Z,50
2018-05-17T04:22:42.824Z,50
2018-05-17T04:23:23.374Z,50
2018-05-17T04:24:03.932Z,50
2018-05-17T04:24:44.506Z,55
2018-05-17T04:25:25.060Z,55
2018-05-17T04:26:05.644Z,55
2018-05-17T04:26:46.204Z,55
2018-05-17T04:27:26.757Z,60
2018-05-17T04:28:07.373Z,60
2018-05-17T04:28:48.863Z,60
2018-05-17T04:29:29.989Z,60
2018-05-17T04:30:10.995Z,65
2018-05-17T04:30:52.614Z,65
2018-05-17T04:31:33.597Z,65
2018-05-17T04:32:14.175Z,70
2018-05-17T04:32:54.764Z,70
2018-05-17T04:33:35.319Z,70
2018-05-17T04:34:15.877Z,70
2018-05-17T04:34:56.478Z,70
2018-05-17T04:35:36.988Z,70
2018-05-17T04:36:17.604Z,70
2018-05-17T04:36:58.166Z,75
2018-05-17T04:37:38.736Z,75
2018-05-17T04:38:19.661Z,75
2018-05-17T04:39:00.389Z,80
2018-05-17T04:39:42.917Z,80
2018-05-17T04:40:23.174Z,80
2018-05-17T04:41:04.201Z,85
2018-05-17T04:41:45.008Z,85
2018-05-17T04:42:26.079Z,85
2018-05-17T04:43:10.375Z,85
2018-05-17T04:43:50.568Z,85
2018-05-17T04:44:31.255Z,85
2018-05-17T04:45:12.318Z,90
2018-05-17T04:45:53.379Z,90
2018-05-17T04:46:34.300Z,90
2018-05-17T04:47:15.358Z,90
2018-05-17T04:47:57.047Z,90
2018-05-17T04:48:38.118Z,90
2018-05-17T04:49:19.103Z,90
2018-05-17T04:49:59.991Z,90
2018-05-17T04:50:41.572Z,90
2018-05-17T04:51:22.474Z,90
2018-05-17T04:52:03.444Z,90
2018-05-17T04:52:44.359Z,90
2018-05-17T04:53:25.452Z,95
2018-05-17T04:54:06.383Z,95
2018-05-17T04:54:47.563Z,95
2018-05-17T04:55:28.537Z,95
2018-05-17T04:56:09.391Z,95
2018-05-17T04:56:50.291Z,95
2018-05-17T04:57:32.264Z,95
2018-05-17T04:58:14.372Z,95
2018-05-17T04:58:55.277Z,95
2018-05-17T04:59:37.149Z,95
2018-05-17T05:00:19.678Z,95
2018-05-17T05:01:01.382Z,95
2018-05-17T05:01:43.919Z,95
2018-05-17T05:02:25.823Z,95
2018-05-17T05:03:09.014Z,95
2018-05-17T05:03:55.574Z,95
2018-05-17T05:04:38.214Z,100
2018-05-17T05:05:24.426Z,100
2018-05-17T05:06:14.578Z,100
2018-05-17T05:06:59.274Z,100
2018-05-17T05:07:43.895Z,100
2018-05-17T05:08:26.241Z,105
2018-05-17T05:09:07.418Z,105
2018-05-17T05:09:53.535Z,105
2018-05-17T05:10:38.456Z,110
2018-05-17T05:11:20.722Z,110
2018-05-17T05:12:02.866Z,110
2018-05-17T05:12:44.350Z,115
2018-05-17T05:13:29.889Z,115
2018-05-17T05:14:21.366Z,120
2018-05-17T05:15:03.945Z,120
2018-05-17T05:15:47.132Z,120
2018-05-17T05:16:31.206Z,120
2018-05-17T05:17:19.593Z,120
2018-05-17T05:18:03.463Z,125
2018-05-17T05:18:46.203Z,125
2018-05-17T05:19:26.195Z,130
2018-05-17T05:20:10.152Z,130
2018-05-17T05:20:55.650Z,135
2018-05-17T05:21:39.971Z,135
2018-05-17T05:22:21.491Z,135
2018-05-17T05:23:03.398Z,135
2018-05-17T05:23:48.438Z,135
2018-05-17T05:24:30.858Z,135
2018-05-17T05:25:12.314Z,135
2018-05-17T05:25:54.740Z,135
2018-05-17T05:26:39.579Z,140
2018-05-17T05:27:23.874Z,145
2018-05-17T05:28:09.217Z,150
2018-05-17T05:28:52.087Z,155
2018-05-17T05:29:42.124Z,160
2018-05-17T05:30:23.782Z,165
2018-05-17T05:31:05.849Z,170
2018-05-17T05:31:54.156Z,175
2018-05-17T05:32:36.017Z,260
2018-05-17T05:33:18.383Z,475
2018-05-17T05:34:04.903Z,795
2018-05-17T05:34:48.088Z,1070
2018-05-17T05:35:30.328Z,1130
2018-05-17T05:36:12.624Z,1130
2018-05-17T05:36:53.902Z,1155
2018-05-17T05:37:42.933Z,1150
2018-05-17T05:38:25.544Z,1130
2018-05-17T05:39:08.628Z,1135
2018-05-17T05:39:50.308Z,1150
2018-05-17T05:40:33.618Z,1175
2018-05-17T05:41:15.248Z,1185
2018-05-17T05:41:57.605Z,1010
2018-05-17T05:42:44.149Z,770
2018-05-17T05:43:26.603Z,650
2018-05-17T05:44:15.355Z,710
2018-05-17T05:44:58.972Z,945
2018-05-17T05:45:41.916Z,1060
2018-05-17T05:46:23.277Z,1235
2018-05-17T05:47:03.872Z,1300
2018-05-17T05:47:44.459Z,1370
2018-05-17T05:48:25.056Z,1355
2018-05-17T05:49:05.623Z,1355
2018-05-17T05:49:46.172Z,1310
2018-05-17T05:50:26.740Z,1220
2018-05-17T05:51:07.323Z,1380
2018-05-17T05:51:47.908Z,1470
2018-05-17T05:52:32.397Z,1390
2018-05-17T05:53:15.379Z,1525
2018-05-17T05:54:00.324Z,1635
2018-05-17T05:54:48.128Z,1650
2018-05-17T05:55:33.195Z,1670
2018-05-17T05:56:15.591Z,1705
2018-05-17T05:56:57.031Z,1670
2018-05-17T05:57:41.616Z,1665
2018-05-17T05:58:25.442Z,1690
2018-05-17T05:59:08.670Z,1720
2018-05-17T05:59:58.433Z,1715
2018-05-17T06:00:43.057Z,1690
2018-05-17T06:01:26.346Z,1670
2018-05-17T06:02:11.012Z,1700
2018-05-17T06:02:53.160Z,1750
2018-05-17T06:03:34.343Z,1785
2018-05-17T06:04:17.926Z,1790
2018-05-17T06:05:03.395Z,1795
2018-05-17T06:05:44.181Z,1810
2018-05-17T06:06:27.643Z,1800
2018-05-17T06:07:15.390Z,1755
2018-05-17T06:07:57.362Z,1675
2018-05-17T06:08:39.678Z,1570
2018-05-17T06:09:23.082Z,1620
2018-05-17T06:10:05.204Z,1680
2018-05-17T06:10:47.915Z,1805
2018-05-17T06:11:31.046Z,1860
2018-05-17T06:12:13.128Z,1870
2018-05-17T06:12:55.094Z,1820
2018-05-17T06:13:37.939Z,1750
2018-05-17T06:14:21.982Z,1750
2018-05-17T06:15:09.141Z,1760
2018-05-17T06:15:48.586Z,1805
2018-05-17T06:16:32.161Z,1825
2018-05-17T06:17:17.428Z,1800
2018-05-17T06:17:59.639Z,1730
2018-05-17T06:18:43.399Z,1705
2018-05-17T06:19:28.928Z,1650
2018-05-17T06:20:10.401Z,1780
2018-05-17T06:20:54.034Z,1775
2018-05-17T06:21:37.288Z,1780
2018-05-17T06:22:24.355Z,1615
2018-05-17T06:23:08.623Z,1670
2018-05-17T06:23:51.791Z,1685
2018-05-17T06:24:38.336Z,1610
2018-05-17T06:25:21.048Z,1760
2018-05-17T06:26:10.903Z,1765
2018-05-17T06:26:54.278Z,1810
2018-05-17T06:27:36.815Z,1845
2018-05-17T06:28:19.025Z,1680
2018-05-17T06:29:03.507Z,1310
2018-05-17T06:29:46.725Z,1160
2018-05-17T06:30:35.538Z,1435
2018-05-17T06:31:16.929Z,1600
2018-05-17T06:31:59.593Z,1725
2018-05-17T06:32:49.439Z,1695
2018-05-17T06:33:34.804Z,1715
2018-05-17T06:34:19.266Z,1735
2018-05-17T06:35:01.632Z,1840
2018-05-17T06:35:45.133Z,1935
2018-05-17T06:36:29.232Z,1890
2018-05-17T06:37:11.061Z,1815
2018-05-17T06:37:53.915Z,1760
2018-05-17T06:38:42.227Z,1840
2018-05-17T06:39:28.558Z,1885
2018-05-17T06:40:17.174Z,1905
2018-05-17T06:40:58.451Z,1800
2018-05-17T06:41:40.932Z,1760
2018-05-17T06:42:23.273Z,1820
2018-05-17T06:43:06.809Z,1930
2018-05-17T06:43:53.618Z,1830
2018-05-17T06:44:36.558Z,1705
2018-05-17T06:45:20.009Z,1705
2018-05-17T06:46:05.548Z,1745
2018-05-17T06:46:46.545Z,1775
2018-05-17T06:47:30.630Z,1735
2018-05-17T06:48:12.816Z,1740
2018-05-17T06:48:55.164Z,1775
2018-05-17T06:49:37.736Z,1815
2018-05-17T06:50:22.216Z,1800
2018-05-17T06:51:04.648Z,1755
2018-05-17T06:51:47.480Z,1715
2018-05-17T06:52:30.674Z,1810
2018-05-17T06:53:13.401Z,1875
2018-05-17T06:53:58.422Z,1680
2018-05-17T06:54:39.878Z,1630
2018-05-17T06:55:22.149Z,1815
2018-05-17T06:56:04.902Z,1840
2018-05-17T06:56:48.167Z,1805
2018-05-17T06:57:31.696Z,1820
2018-05-17T06:58:16.779Z,1840
2018-05-17T06:58:59.986Z,1710
2018-05-17T06:59:46.696Z,1450
2018-05-17T07:00:35.318Z,1425
2018-05-17T07:01:20.588Z,1330
2018-05-17T07:02:08.715Z,1660
2018-05-17T07:02:53.960Z,1695
2018-05-17T07:03:35.464Z,1665
2018-05-17T07:04:18.957Z,1565
2018-05-17T07:05:02.683Z,1425
2018-05-17T07:05:45.818Z,1390
2018-05-17T07:06:27.728Z,1395
2018-05-17T07:07:10.501Z,1305
2018-05-17T07:07:57.650Z,1280
2018-05-17T07:08:40.265Z,1165
2018-05-17T07:09:23.901Z,1075
2018-05-17T07:10:05.920Z,1055
2018-05-17T07:10:51.640Z,940
2018-05-17T07:11:33.848Z,825
2018-05-17T07:12:18.049Z,785
2018-05-17T07:13:03.464Z,750
2018-05-17T07:13:50.119Z,730
2018-05-17T07:14:36.091Z,705
2018-05-17T07:15:19.379Z,680
2018-05-17T07:16:07.158Z,655
2018-05-17T07:16:46.977Z,570
2018-05-17T07:17:30.212Z,445
2018-05-17T07:18:13.306Z,525
2018-05-17T07:19:01.719Z,515
2018-05-17T07:19:49.701Z,455
2018-05-17T07:20:44.695Z,430
2018-05-17T07:21:37.921Z,430
2018-05-17T07:22:20.662Z,410
2018-05-17T07:23:03.796Z,395
2018-05-17T07:23:49.170Z,445
2018-05-17T07:24:31.381Z,515
2018-05-17T07:25:15.445Z,550
2018-05-17T07:26:00.907Z,520
2018-05-17T07:26:42.227Z,490
2018-05-17T07:27:26.279Z,530
2018-05-17T07:28:10.365Z,540
2018-05-17T07:28:54.281Z,555
2018-05-17T07:29:36.263Z,565
2018-05-17T07:30:20.162Z,550
2018-05-17T07:31:01.586Z,550
2018-05-17T07:31:44.277Z,550
2018-05-17T07:32:30.629Z,510
2018-05-17T07:33:15.995Z,500
2018-05-17T07:33:57.500Z,505
2018-05-17T07:34:41.996Z,500
2018-05-17T07:35:24.096Z,545
2018-05-17T07:36:10.979Z,545
2018-05-17T07:36:56.138Z,435
2018-05-17T07:37:43.550Z,430
2018-05-17T07:38:34.832Z,385
2018-05-17T07:39:31.596Z,440
2018-05-17T07:40:14.735Z,415
2018-05-17T07:40:57.583Z,400
2018-05-17T07:41:41.570Z,445
2018-05-17T07:42:26.965Z,440
2018-05-17T07:43:10.137Z,465
2018-05-17T07:43:53.161Z,470
2018-05-17T07:44:39.577Z,490
2018-05-17T07:45:21.804Z,490
2018-05-17T07:46:03.639Z,470
2018-05-17T07:46:46.472Z,475
2018-05-17T07:47:28.146Z,465
2018-05-17T07:48:11.635Z,440
2018-05-17T07:48:57.014Z,455
2018-05-17T07:49:39.594Z,480
2018-05-17T07:50:24.560Z,490
2018-05-17T07:51:08.219Z,460
2018-05-17T07:51:53.466Z,460
2018-05-17T07:52:34.544Z,400
2018-05-17T07:53:20.044Z,350
2018-05-17T07:54:05.490Z,325
2018-05-17T07:54:48.630Z,305
2018-05-17T07:55:31.607Z,280
2018-05-17T07:56:14.477Z,285
2018-05-17T07:56:58.202Z,270
2018-05-17T07:57:41.716Z,265
2018-05-17T07:58:26.629Z,250
2018-05-17T07:59:10.518Z,230
2018-05-17T07:59:54.696Z,255
2018-05-17T08:00:40.472Z,265
2018-05-17T08:01:23.293Z,300
2018-05-17T08:02:06.252Z,325
2018-05-17T08:02:49.072Z,350
2018-05-17T08:03:30.417Z,390
2018-05-17T08:04:14.220Z,395
2018-05-17T08:04:56.459Z,365
2018-05-17T08:05:41.730Z,355
2018-05-17T08:06:25.472Z,305
2018-05-17T08:07:08.257Z,250
2018-05-17T08:07:51.256Z,235
2018-05-17T08:08:35.155Z,225
2018-05-17T08:09:15.696Z,215
2018-05-17T08:09:56.255Z,215
2018-05-17T08:10:36.829Z,210
2018-05-17T08:11:17.409Z,205
2018-05-17T08:11:57.979Z,220
2018-05-17T08:12:38.572Z,225
2018-05-17T08:13:19.136Z,225
2018-05-17T08:13:59.713Z,235
2018-05-17T08:14:40.274Z,265
2018-05-17T08:15:20.832Z,255
2018-05-17T08:16:01.443Z,255
2018-05-17T08:16:42.019Z,270
2018-05-17T08:17:22.602Z,280
2018-05-17T08:18:03.175Z,290
2018-05-17T08:18:43.738Z,315
2018-05-17T08:19:24.314Z,340
2018-05-17T08:20:04.884Z,320
2018-05-17T08:20:45.484Z,310
2018-05-17T08:21:26.045Z,320
2018-05-17T08:22:06.619Z,330
2018-05-17T08:22:47.218Z,310
2018-05-17T08:23:28.033Z,300
2018-05-17T08:24:08.909Z,335
2018-05-17T08:24:49.484Z,330
2018-05-17T08:25:30.066Z,325
2018-05-17T08:26:10.644Z,320
2018-05-17T08:26:51.238Z,300
2018-05-17T08:27:31.801Z,290
2018-05-17T08:28:12.380Z,305
2018-05-17T08:28:52.993Z,305
2018-05-17T08:29:33.497Z,305
2018-05-17T08:30:14.059Z,310
2018-05-17T08:30:54.640Z,305
2018-05-17T08:31:35.205Z,300
2018-05-17T08:32:15.755Z,305
2018-05-17T08:32:56.333Z,305
2018-05-17T08:33:36.907Z,305
2018-05-17T08:34:17.522Z,300
2018-05-17T08:34:58.101Z,300
2018-05-17T08:35:38.676Z,300
2018-05-17T08:36:19.326Z,300
2018-05-17T08:36:59.807Z,300
2018-05-17T08:37:40.389Z,285
2018-05-17T08:38:20.967Z,280
2018-05-17T08:39:02.281Z,275
2018-05-17T08:39:42.854Z,270
2018-05-17T08:40:23.438Z,270
2018-05-17T08:41:04.035Z,270
2018-05-17T08:41:44.594Z,270
2018-05-17T08:42:25.147Z,270
2018-05-17T08:43:05.715Z,265
2018-05-17T08:43:46.284Z,260
2018-05-17T08:44:26.831Z,260
2018-05-17T08:45:07.388Z,265
2018-05-17T08:45:47.960Z,275
2018-05-17T08:46:28.521Z,285
2018-05-17T08:47:09.063Z,275
2018-05-17T08:47:49.647Z,270
2018-05-17T08:48:30.184Z,270
2018-05-17T08:49:10.745Z,270
2018-05-17T08:49:51.313Z,260
2018-05-17T08:50:31.891Z,260
2018-05-17T08:51:12.473Z,255
2018-05-17T08:51:53.037Z,250
2018-05-17T08:52:33.605Z,255
2018-05-17T08:53:14.199Z,260
2018-05-17T08:53:54.779Z,265
2018-05-17T08:54:35.343Z,265
2018-05-17T08:55:15.905Z,270
2018-05-17T08:55:56.483Z,265
2018-05-17T08:56:37.055Z,260
2018-05-17T08:57:17.623Z,260
2018-05-17T08:57:58.202Z,245
2018-05-17T08:58:38.792Z,245
2018-05-17T08:59:19.356Z,245
2018-05-17T08:59:59.908Z,255
2018-05-17T09:00:40.490Z,260
2018-05-17T09:01:21.053Z,255
2018-05-17T09:02:01.647Z,210
2018-05-17T09:02:42.221Z,215
2018-05-17T09:03:22.777Z,195
2018-05-17T09:04:03.332Z,205
2018-05-17T09:04:43.909Z,195
2018-05-17T09:05:24.473Z,190
2018-05-17T09:06:05.042Z,230
2018-05-17T09:06:45.599Z,230
2018-05-17T09:07:26.180Z,230
2018-05-17T09:08:06.739Z,235
2018-05-17T09:08:47.317Z,235
2018-05-17T09:09:27.895Z,240
2018-05-17T09:10:08.505Z,235
2018-05-17T09:10:49.058Z,235
2018-05-17T09:11:29.618Z,230
2018-05-17T09:12:10.189Z,230
2018-05-17T09:12:50.768Z,230
2018-05-17T09:13:31.529Z,235
2018-05-17T09:14:12.000Z,245
2018-05-17T09:14:52.555Z,230
2018-05-17T09:15:33.136Z,225
2018-05-17T09:16:13.726Z,230
2018-05-17T09:16:54.333Z,215
2018-05-17T09:17:34.929Z,190
2018-05-17T09:18:15.508Z,170
2018-05-17T09:18:56.066Z,165
2018-05-17T09:19:36.645Z,180
2018-05-17T09:20:17.214Z,195
2018-05-17T09:20:57.781Z,215
2018-05-17T09:21:38.348Z,220
2018-05-17T09:22:18.915Z,215
2018-05-17T09:22:59.471Z,215
2018-05-17T09:23:40.030Z,200
2018-05-17T09:24:20.582Z,190
2018-05-17T09:25:01.142Z,175
2018-05-17T09:25:41.705Z,160
2018-05-17T09:26:22.273Z,160
2018-05-17T09:27:02.853Z,165
2018-05-17T09:27:43.420Z,170
2018-05-17T09:28:23.992Z,175
2018-05-17T09:29:04.655Z,185
2018-05-17T09:29:45.134Z,185
2018-05-17T09:30:25.739Z,190
2018-05-17T09:31:06.272Z,195
2018-05-17T09:31:46.848Z,195
2018-05-17T09:32:27.401Z,190
2018-05-17T09:33:07.952Z,190
2018-05-17T09:33:48.502Z,185
2018-05-17T09:34:29.080Z,185
2018-05-17T09:35:09.639Z,190
2018-05-17T09:35:50.214Z,190
2018-05-17T09:36:30.786Z,195
2018-05-17T09:37:11.352Z,210
2018-05-17T09:37:51.906Z,205
2018-05-17T09:38:32.480Z,210
2018-05-17T09:39:13.047Z,210
2018-05-17T09:39:53.609Z,215
2018-05-17T09:40:34.162Z,210
2018-05-17T09:41:14.729Z,210
2018-05-17T09:41:55.310Z,205
2018-05-17T09:42:35.868Z,205
2018-05-17T09:43:16.448Z,205
2018-05-17T09:43:57.033Z,205
2018-05-17T09:44:37.621Z,205
2018-05-17T09:45:18.171Z,200
2018-05-17T09:45:58.733Z,205
2018-05-17T09:46:39.322Z,210
2018-05-17T09:47:19.873Z,200
2018-05-17T09:48:00.476Z,200
2018-05-17T09:48:41.075Z,205
2018-05-17T09:49:21.630Z,200